createdAt,value
2017-10-26T00:02:12.446Z,31.03
2017-10-26T00:04:40.025Z,31.90
2017-10-26T00:07:07.620Z,33.40
2017-10-26T00:09:35.964Z,32.60
2017-10-26T00:12:03.542Z,33.17
2017-10-26T00:14:31.133Z,34.20
2017-10-26T00:16:58.693Z,34.77
2017-10-26T00:19:27.040Z,32.47
2017-10-26T00:21:54.652Z,33.40
2017-10-26T00:24:22.236Z,34.20
2017-10-26T00:26:49.827Z,33.40
2017-10-26T00:29:17.453Z,36.13
2017-10-26T00:31:45.020Z,34.70
2017-10-26T00:34:12.577Z,35.30
2017-10-26T00:36:40.184Z,34.10
2017-10-26T00:39:07.744Z,32.00
2017-10-26T00:41:35.352Z,37.60
2017-10-26T00:44:02.973Z,32.87
2017-10-26T00:46:30.540Z,38.00
2017-10-26T00:48:58.116Z,36.93
2017-10-26T00:51:26.492Z,32.70
2017-10-26T00:53:54.836Z,36.70
2017-10-26T00:56:22.415Z,37.80
2017-10-26T00:58:50.047Z,39.60
2017-10-26T01:01:17.711Z,41.53
2017-10-26T01:03:45.305Z,43.57
2017-10-26T01:06:12.945Z,44.60
2017-10-26T01:08:40.538Z,42.70
2017-10-26T01:11:08.125Z,44.83
2017-10-26T01:13:36.485Z,44.53
2017-10-26T01:16:04.061Z,40.80
2017-10-26T01:18:32.411Z,43.77
2017-10-26T01:21:00.013Z,40.97
2017-10-26T01:23:27.590Z,41.37
2017-10-26T01:25:55.158Z,36.23
2017-10-26T01:28:22.746Z,36.80
2017-10-26T01:30:50.341Z,36.70
2017-10-26T01:33:17.924Z,37.30
2017-10-26T01:35:46.291Z,35.93
2017-10-26T01:38:14.622Z,36.73
2017-10-26T01:40:42.191Z,33.27
2017-10-26T01:43:09.809Z,39.40
2017-10-26T01:45:38.143Z,35.83
2017-10-26T01:48:05.731Z,33.30
2017-10-26T01:50:34.130Z,35.20
2017-10-26T01:53:02.475Z,38.03
2017-10-26T01:55:30.046Z,38.20
2017-10-26T01:57:57.634Z,40.03
2017-10-26T02:00:25.210Z,39.27
2017-10-26T02:02:52.810Z,41.00
2017-10-26T02:05:20.430Z,42.87
2017-10-26T02:07:48.008Z,42.57
2017-10-26T02:10:15.591Z,43.03
2017-10-26T02:12:43.213Z,44.87
2017-10-26T02:15:10.807Z,42.80
2017-10-26T02:17:38.386Z,44.37
2017-10-26T02:20:06.003Z,41.87
2017-10-26T02:22:33.610Z,41.93
2017-10-26T02:25:01.185Z,44.47
2017-10-26T02:27:28.781Z,42.33
2017-10-26T02:30:09.058Z,43.13
2017-10-26T02:32:36.685Z,43.90
2017-10-26T02:35:04.282Z,44.63
2017-10-26T02:37:31.877Z,44.57
2017-10-26T02:39:59.479Z,43.97
2017-10-26T02:42:27.813Z,46.00
2017-10-26T02:44:55.365Z,43.90
2017-10-26T02:47:22.926Z,44.90
2017-10-26T02:49:50.507Z,43.37
2017-10-26T02:52:18.041Z,46.20
2017-10-26T02:54:45.636Z,44.47
2017-10-26T02:57:13.198Z,44.27
2017-10-26T02:59:40.762Z,44.37
2017-10-26T03:02:08.327Z,44.33
2017-10-26T03:04:35.884Z,46.50
2017-10-26T03:07:03.449Z,43.20
2017-10-26T03:09:30.999Z,46.20
2017-10-26T03:11:58.583Z,42.73
2017-10-26T03:14:26.148Z,41.43
2017-10-26T03:16:53.688Z,40.10
2017-10-26T03:19:21.258Z,43.00
2017-10-26T03:21:48.811Z,40.93
2017-10-26T03:24:16.389Z,40.17
2017-10-26T03:26:43.944Z,41.57
2017-10-26T03:29:11.520Z,41.30
2017-10-26T03:31:39.079Z,39.10
2017-10-26T03:34:06.641Z,38.00
2017-10-26T03:36:34.192Z,38.27
2017-10-26T03:39:01.742Z,38.80
2017-10-26T03:41:29.318Z,38.67
2017-10-26T03:43:56.854Z,37.80
2017-10-26T03:46:24.420Z,39.50
2017-10-26T03:48:51.957Z,36.40
2017-10-26T03:51:20.283Z,35.80
2017-10-26T03:53:47.830Z,38.70
2017-10-26T03:56:15.368Z,40.33
2017-10-26T03:58:42.938Z,38.80
2017-10-26T04:01:10.473Z,34.10
2017-10-26T04:03:38.816Z,37.83
2017-10-26T04:06:06.371Z,38.10
2017-10-26T04:08:33.924Z,39.83
2017-10-26T04:11:01.453Z,37.37
2017-10-26T04:13:29.047Z,39.00
2017-10-26T04:15:56.599Z,39.80
2017-10-26T04:18:24.134Z,37.83
2017-10-26T04:20:51.693Z,35.93
2017-10-26T04:23:19.241Z,40.40
2017-10-26T04:25:47.574Z,38.37
2017-10-26T04:28:15.111Z,40.03
2017-10-26T04:30:42.688Z,37.13
2017-10-26T04:33:10.243Z,38.10
2017-10-26T04:35:37.840Z,35.13
2017-10-26T04:38:05.399Z,39.10
2017-10-26T04:40:32.960Z,36.10
2017-10-26T04:43:00.535Z,36.77
2017-10-26T04:45:28.079Z,35.90
2017-10-26T04:47:55.649Z,36.00
2017-10-26T04:50:23.204Z,37.23
2017-10-26T04:52:50.773Z,33.50
2017-10-26T04:55:18.322Z,38.77
2017-10-26T04:57:45.864Z,33.93
2017-10-26T05:00:13.436Z,36.37
2017-10-26T05:02:40.989Z,35.77
2017-10-26T05:05:08.550Z,35.03
2017-10-26T05:07:36.092Z,38.87
2017-10-26T05:10:03.777Z,33.40
2017-10-26T05:12:31.340Z,35.07
2017-10-26T05:14:58.877Z,35.13
2017-10-26T05:17:26.430Z,36.17
2017-10-26T05:19:54.741Z,35.50
2017-10-26T05:22:22.295Z,34.40
2017-10-26T05:24:49.854Z,35.70
2017-10-26T05:27:17.739Z,35.57
2017-10-26T05:29:45.277Z,34.10
2017-10-26T05:32:13.517Z,34.07
2017-10-26T05:34:41.371Z,34.40
2017-10-26T05:37:09.724Z,34.87
2017-10-26T05:39:37.358Z,33.00
2017-10-26T05:42:06.011Z,33.13
2017-10-26T05:44:34.195Z,34.17
2017-10-26T05:47:01.733Z,32.60
2017-10-26T05:49:29.309Z,31.80
2017-10-26T05:51:56.849Z,31.60
2017-10-26T05:54:24.409Z,35.07
2017-10-26T05:56:51.944Z,31.10
2017-10-26T05:59:19.515Z,31.43
2017-10-26T06:01:47.071Z,33.77
2017-10-26T06:04:14.651Z,30.90
2017-10-26T06:06:42.194Z,31.87
2017-10-26T06:09:09.759Z,31.77
2017-10-26T06:11:37.308Z,31.10
2017-10-26T06:14:04.846Z,31.17
2017-10-26T06:16:33.168Z,28.10
2017-10-26T06:19:00.712Z,29.00
2017-10-26T06:21:28.296Z,28.53
2017-10-26T06:23:55.837Z,29.60
2017-10-26T06:26:23.417Z,29.07
2017-10-26T06:28:50.953Z,28.10
2017-10-26T06:31:18.545Z,28.27
2017-10-26T06:33:46.097Z,29.20
2017-10-26T06:36:13.637Z,30.33
2017-10-26T06:38:41.194Z,26.73
2017-10-26T06:41:09.516Z,29.10
2017-10-26T06:43:37.093Z,28.80
2017-10-26T06:46:04.639Z,28.50
2017-10-26T06:48:32.205Z,29.97
2017-10-26T06:50:59.743Z,30.07
2017-10-26T06:53:27.315Z,30.67
2017-10-26T06:55:54.878Z,29.00
2017-10-26T06:58:22.445Z,27.77
2017-10-26T07:00:50.030Z,29.23
2017-10-26T07:03:17.571Z,26.90
2017-10-26T07:05:45.157Z,29.03
2017-10-26T07:08:12.706Z,25.70
2017-10-26T07:10:40.296Z,28.17
2017-10-26T07:13:08.635Z,27.37
2017-10-26T07:15:36.211Z,27.13
2017-10-26T07:18:03.753Z,27.83
2017-10-26T07:20:31.333Z,28.67
2017-10-26T07:22:58.899Z,30.07
2017-10-26T07:25:26.440Z,32.07
2017-10-26T07:27:54.025Z,28.33
2017-10-26T07:30:21.597Z,26.80
2017-10-26T07:32:49.188Z,30.20
2017-10-26T07:35:17.536Z,27.90
2017-10-26T07:37:45.123Z,27.90
2017-10-26T07:40:13.446Z,27.47
2017-10-26T07:42:41.022Z,29.73
2017-10-26T07:45:08.584Z,27.70
2017-10-26T07:47:36.135Z,28.40
2017-10-26T07:50:03.710Z,28.90
2017-10-26T07:52:31.258Z,27.67
2017-10-26T07:54:58.849Z,26.33
2017-10-26T07:57:26.411Z,24.43
2017-10-26T07:59:54.004Z,27.50
2017-10-26T08:02:22.329Z,25.43
2017-10-26T08:04:49.912Z,24.17
2017-10-26T08:07:17.484Z,26.00
2017-10-26T08:09:45.045Z,27.33
2017-10-26T08:12:12.639Z,25.53
2017-10-26T08:14:40.196Z,25.00
2017-10-26T08:17:08.530Z,24.03
2017-10-26T08:19:36.089Z,22.60
2017-10-26T08:22:03.637Z,24.63
2017-10-26T08:24:31.196Z,24.90
2017-10-26T08:26:58.741Z,23.83
2017-10-26T08:29:26.328Z,22.43
2017-10-26T08:31:53.882Z,23.83
2017-10-26T08:34:21.457Z,22.77
2017-10-26T08:36:49.012Z,21.27
2017-10-26T08:39:16.575Z,21.83
2017-10-26T08:41:44.137Z,22.07
2017-10-26T08:44:11.738Z,24.27
2017-10-26T08:46:39.291Z,22.70
2017-10-26T08:49:07.631Z,21.90
2017-10-26T08:51:35.207Z,22.40
2017-10-26T08:54:02.783Z,21.93
2017-10-26T08:56:30.359Z,22.43
2017-10-26T08:58:57.910Z,22.67
2017-10-26T09:01:25.501Z,23.20
2017-10-26T09:03:53.838Z,22.87
2017-10-26T09:06:21.413Z,22.90
2017-10-26T09:08:48.968Z,21.13
2017-10-26T09:11:16.554Z,20.67
2017-10-26T09:13:44.105Z,21.60
2017-10-26T09:16:12.563Z,23.27
2017-10-26T09:21:14.148Z,23.07
2017-10-26T09:23:43.653Z,22.47
2017-10-26T09:26:11.238Z,22.80
2017-10-26T09:28:38.778Z,21.63
2017-10-26T09:31:06.344Z,23.40
2017-10-26T09:33:38.025Z,22.70
2017-10-26T09:36:06.345Z,23.10
2017-10-26T09:38:33.962Z,24.90
2017-10-26T09:41:02.501Z,24.73
2017-10-26T09:43:30.131Z,27.60
2017-10-26T09:45:58.845Z,26.67
2017-10-26T09:48:26.409Z,24.37
2017-10-26T09:50:54.014Z,25.20
2017-10-26T09:53:21.591Z,26.63
2017-10-26T09:55:49.169Z,27.27
2017-10-26T09:58:17.492Z,24.73
2017-10-26T10:00:45.083Z,25.90
2017-10-26T10:03:12.632Z,25.83
2017-10-26T10:05:40.201Z,27.20
2017-10-26T10:08:07.762Z,25.40
2017-10-26T10:10:35.336Z,24.10
2017-10-26T10:13:02.911Z,26.47
2017-10-26T10:15:31.251Z,26.63
2017-10-26T10:17:58.854Z,24.90
2017-10-26T10:20:27.186Z,23.40
2017-10-26T10:22:54.790Z,27.30
2017-10-26T10:25:22.333Z,25.33
2017-10-26T10:27:49.906Z,22.13
2017-10-26T10:30:17.472Z,22.70
2017-10-26T10:32:45.058Z,22.97
2017-10-26T10:35:13.393Z,22.20
2017-10-26T10:37:40.968Z,20.50
2017-10-26T10:40:08.527Z,22.67
2017-10-26T10:42:36.104Z,21.60
2017-10-26T10:45:04.421Z,21.27
2017-10-26T10:47:32.003Z,19.70
2017-10-26T10:49:59.566Z,19.30
2017-10-26T10:52:27.147Z,19.47
2017-10-26T10:54:54.712Z,18.17
2017-10-26T10:57:22.295Z,20.53
2017-10-26T10:59:55.489Z,18.60
2017-10-26T11:02:23.051Z,17.10
2017-10-26T11:04:50.597Z,19.00
2017-10-26T11:07:18.187Z,18.83
2017-10-26T11:09:46.615Z,19.30
2017-10-26T11:12:14.158Z,19.17
2017-10-26T11:14:41.722Z,17.47
2017-10-26T11:17:09.250Z,20.40
2017-10-26T11:19:36.831Z,19.63
2017-10-26T11:22:04.386Z,17.73
2017-10-26T11:24:32.761Z,18.40
2017-10-26T11:27:01.080Z,18.90
2017-10-26T11:29:28.651Z,19.23
2017-10-26T11:31:56.210Z,20.10
2017-10-26T11:34:23.748Z,20.97
2017-10-26T11:36:51.330Z,19.30
2017-10-26T11:39:18.868Z,19.70
2017-10-26T11:41:46.446Z,19.10
2017-10-26T11:44:13.976Z,21.77
2017-10-26T11:46:42.324Z,20.80
2017-10-26T11:49:09.877Z,20.77
2017-10-26T11:51:37.424Z,21.67
2017-10-26T11:54:04.995Z,23.27
2017-10-26T11:56:32.544Z,22.57
2017-10-26T11:59:00.099Z,22.37
2017-10-26T12:01:27.646Z,22.00
2017-10-26T12:03:55.208Z,22.03
2017-10-26T12:06:22.742Z,21.40
2017-10-26T12:08:51.045Z,21.17
2017-10-26T12:11:18.616Z,20.03
2017-10-26T12:13:46.158Z,20.43
2017-10-26T12:16:14.477Z,19.77
2017-10-26T12:18:42.035Z,19.47
2017-10-26T12:21:09.630Z,21.10
2017-10-26T12:23:37.170Z,20.10
2017-10-26T12:26:04.740Z,19.10
2017-10-26T12:28:32.286Z,18.93
2017-10-26T12:30:59.837Z,20.13
2017-10-26T12:33:27.408Z,21.87
2017-10-26T12:35:54.976Z,19.10
2017-10-26T12:38:22.509Z,18.60
2017-10-26T12:40:50.054Z,20.40
2017-10-26T12:43:18.388Z,19.23
2017-10-26T12:45:45.917Z,20.00
2017-10-26T12:48:13.485Z,20.23
2017-10-26T12:50:41.028Z,21.63
2017-10-26T12:53:08.618Z,20.40
2017-10-26T12:55:36.215Z,20.20
2017-10-26T12:58:03.774Z,19.00
2017-10-26T13:00:31.340Z,19.10
2017-10-26T13:02:58.906Z,19.90
2017-10-26T13:05:26.468Z,21.07
2017-10-26T13:07:54.043Z,17.90
2017-10-26T13:10:22.368Z,18.20
2017-10-26T13:12:49.926Z,17.53
2017-10-26T13:15:17.463Z,16.07
2017-10-26T13:17:45.034Z,15.00
2017-10-26T13:20:12.581Z,16.60
2017-10-26T13:22:40.897Z,15.40
2017-10-26T13:25:08.457Z,15.97
2017-10-26T13:27:36.016Z,15.10
2017-10-26T13:30:03.585Z,14.53
2017-10-26T13:32:31.139Z,15.20
2017-10-26T13:34:58.708Z,16.10
2017-10-26T13:37:26.268Z,12.90
2017-10-26T13:39:53.822Z,14.10
2017-10-26T13:42:21.367Z,13.17
2017-10-26T13:44:48.926Z,13.13
2017-10-26T13:47:16.463Z,13.50
2017-10-26T13:49:44.809Z,14.30
2017-10-26T13:52:12.337Z,13.17
2017-10-26T13:54:39.876Z,13.60
2017-10-26T13:57:08.197Z,12.33
2017-10-26T13:59:35.749Z,12.07
2017-10-26T14:02:03.311Z,11.23
2017-10-26T14:04:30.857Z,12.70
2017-10-26T14:06:58.441Z,11.00
2017-10-26T14:09:25.979Z,10.80
2017-10-26T14:11:53.564Z,10.97
2017-10-26T14:14:21.122Z,12.10
2017-10-26T14:16:48.680Z,12.10
2017-10-26T14:19:16.213Z,10.53
2017-10-26T14:21:44.535Z,10.80
2017-10-26T14:24:12.082Z,10.80
2017-10-26T14:26:39.660Z,10.63
2017-10-26T14:29:07.198Z,9.33
2017-10-26T14:31:34.753Z,10.97
2017-10-26T14:34:02.302Z,10.20
2017-10-26T14:36:30.639Z,12.00
2017-10-26T14:38:58.183Z,10.20
2017-10-26T14:41:25.845Z,9.57
2017-10-26T14:43:53.407Z,11.70
2017-10-26T14:46:20.970Z,10.20
2017-10-26T14:48:48.530Z,9.80
2017-10-26T14:51:16.093Z,9.97
2017-10-26T14:53:43.645Z,9.77
2017-10-26T14:56:11.200Z,10.73
2017-10-26T14:58:38.758Z,9.83
2017-10-26T15:01:06.316Z,10.43
2017-10-26T15:03:33.917Z,11.10
2017-10-26T15:06:01.468Z,10.60
2017-10-26T15:08:30.303Z,10.27
2017-10-26T15:10:58.646Z,9.67
2017-10-26T15:13:26.192Z,8.80
2017-10-26T15:15:53.754Z,10.30
2017-10-26T15:18:21.314Z,10.80
2017-10-26T15:20:48.862Z,11.43
2017-10-26T15:23:16.439Z,11.30
2017-10-26T15:25:43.986Z,9.40
2017-10-26T15:28:11.563Z,10.73
2017-10-26T15:30:39.119Z,9.77
2017-10-26T15:33:06.656Z,10.37
2017-10-26T15:35:35.001Z,11.87
2017-10-26T15:38:02.549Z,10.40
2017-10-26T15:40:30.886Z,11.37
2017-10-26T15:42:58.421Z,12.53
2017-10-26T15:45:26.753Z,11.20
2017-10-26T15:47:54.310Z,9.87
2017-10-26T15:50:21.879Z,11.73
2017-10-26T15:52:49.437Z,10.47
2017-10-26T15:55:17.821Z,10.27
2017-10-26T15:57:45.372Z,11.13
2017-10-26T16:00:12.921Z,11.10
2017-10-26T16:02:40.504Z,11.27
2017-10-26T16:05:08.053Z,11.37
2017-10-26T16:07:35.617Z,11.23
2017-10-26T16:10:03.154Z,11.77
2017-10-26T16:12:31.504Z,10.80
2017-10-26T16:14:59.067Z,9.53
2017-10-26T16:17:26.663Z,10.53
2017-10-26T16:19:54.217Z,11.27
2017-10-26T16:22:22.529Z,12.47
2017-10-26T16:24:50.096Z,12.50
2017-10-26T16:27:17.655Z,11.00
2017-10-26T16:29:45.239Z,10.03
2017-10-26T16:32:12.797Z,10.90
2017-10-26T16:34:40.391Z,10.80
2017-10-26T16:39:42.658Z,12.90
2017-10-26T16:42:10.203Z,11.00
2017-10-26T16:44:38.552Z,11.00
2017-10-26T16:47:06.095Z,11.83
2017-10-26T16:49:34.452Z,11.23
2017-10-26T16:52:01.998Z,11.43
2017-10-26T16:54:29.564Z,12.40
2017-10-26T16:56:57.151Z,11.90
2017-10-26T16:59:25.484Z,11.70
2017-10-26T17:01:53.058Z,11.90
2017-10-26T17:04:20.614Z,11.37
2017-10-26T17:06:48.165Z,11.80
2017-10-26T17:09:15.711Z,12.03
2017-10-26T17:14:17.286Z,11.43
2017-10-26T17:16:44.885Z,11.63
2017-10-26T17:19:12.434Z,11.50
2017-10-26T17:21:39.987Z,11.73
2017-10-26T17:24:07.549Z,12.70
2017-10-26T17:26:35.092Z,12.17
2017-10-26T17:29:02.677Z,12.50
2017-10-26T17:31:30.240Z,12.27
2017-10-26T17:33:57.796Z,12.00
2017-10-26T17:36:25.347Z,12.50
2017-10-26T17:38:52.910Z,12.30
2017-10-26T17:41:20.450Z,12.00
2017-10-26T17:43:48.796Z,14.50
2017-10-26T17:46:16.349Z,15.77
2017-10-26T17:48:43.931Z,14.77
2017-10-26T17:51:11.487Z,13.23
2017-10-26T17:53:39.068Z,12.73
2017-10-26T17:56:07.368Z,11.70
2017-10-26T17:58:34.935Z,11.90
2017-10-26T18:01:02.489Z,12.10
2017-10-26T18:03:30.086Z,12.13
2017-10-26T18:05:57.617Z,14.07
2017-10-26T18:08:25.171Z,13.90
2017-10-26T18:10:52.749Z,11.60
2017-10-26T18:13:20.322Z,13.30
2017-10-26T18:15:47.886Z,16.00
2017-10-26T18:18:15.423Z,11.73
2017-10-26T18:20:42.999Z,14.90
2017-10-26T18:23:10.555Z,13.83
2017-10-26T18:25:38.133Z,14.90
2017-10-26T18:28:05.692Z,13.23
2017-10-26T18:30:33.237Z,12.90
2017-10-26T18:33:00.820Z,14.70
2017-10-26T18:35:28.371Z,15.57
2017-10-26T18:37:55.942Z,14.80
2017-10-26T18:40:23.515Z,16.83
2017-10-26T18:42:51.851Z,16.67
2017-10-26T18:45:20.176Z,15.77
2017-10-26T18:47:47.760Z,15.77
2017-10-26T18:50:15.317Z,16.20
2017-10-26T18:52:42.873Z,18.27
2017-10-26T18:55:10.458Z,14.30
2017-10-26T18:57:37.993Z,17.73
2017-10-26T19:00:05.557Z,15.60
2017-10-26T19:02:33.107Z,16.53
2017-10-26T19:05:00.675Z,14.60
2017-10-26T19:07:28.204Z,16.20
2017-10-26T19:09:55.800Z,14.87
2017-10-26T19:12:23.345Z,14.60
2017-10-26T19:14:50.884Z,15.63
2017-10-26T19:17:18.467Z,15.30
2017-10-26T19:19:46.034Z,15.27
2017-10-26T19:22:13.593Z,15.10
2017-10-26T19:24:41.129Z,14.70
2017-10-26T19:27:08.684Z,12.10
2017-10-26T19:29:36.255Z,13.50
2017-10-26T19:32:03.839Z,13.43
2017-10-26T19:34:31.389Z,14.50
2017-10-26T19:36:58.945Z,15.20
2017-10-26T19:39:26.495Z,13.60
2017-10-26T19:41:54.850Z,12.37
2017-10-26T19:44:24.362Z,13.03
2017-10-26T19:46:52.692Z,12.50
2017-10-26T19:49:20.260Z,12.03
2017-10-26T19:51:47.818Z,10.43
2017-10-26T19:54:15.435Z,10.90
2017-10-26T19:56:43.758Z,11.97
2017-10-26T19:59:11.340Z,11.30
2017-10-26T20:01:38.984Z,11.10
2017-10-26T20:04:06.546Z,11.60
2017-10-26T20:06:34.111Z,10.97
2017-10-26T20:09:01.657Z,9.73
2017-10-26T20:11:29.235Z,10.00
2017-10-26T20:13:56.786Z,10.97
2017-10-26T20:16:24.367Z,10.47
2017-10-26T20:18:51.902Z,9.80
2017-10-26T20:21:19.478Z,9.23
2017-10-26T20:23:47.023Z,10.50
2017-10-26T20:26:14.602Z,10.47
2017-10-26T20:28:42.129Z,9.80
2017-10-26T20:31:10.488Z,9.83
2017-10-26T20:33:38.325Z,8.80
2017-10-26T20:36:05.854Z,9.27
2017-10-26T20:38:33.408Z,9.10
2017-10-26T20:41:00.958Z,9.60
2017-10-26T20:43:29.296Z,9.00
2017-10-26T20:45:56.847Z,9.90
2017-10-26T20:48:26.231Z,8.93
2017-10-26T20:50:59.351Z,8.47
2017-10-26T20:53:32.620Z,7.43
2017-10-26T20:56:05.782Z,9.20
2017-10-26T20:58:39.741Z,8.70
2017-10-26T21:01:13.052Z,7.33
2017-10-26T21:03:46.201Z,8.00
2017-10-26T21:06:19.278Z,8.90
2017-10-26T21:08:53.424Z,7.43
2017-10-26T21:14:26.253Z,9.43
2017-10-26T21:16:53.802Z,9.30
2017-10-26T21:19:21.352Z,9.53
2017-10-26T21:21:48.906Z,9.67
2017-10-26T21:24:16.463Z,10.40
2017-10-26T21:26:44.016Z,9.67
2017-10-26T21:29:12.318Z,9.93
2017-10-26T21:31:39.880Z,9.13
2017-10-26T21:34:07.423Z,9.90
2017-10-26T21:36:35.001Z,9.90
2017-10-26T21:39:02.556Z,9.27
2017-10-26T21:41:30.123Z,9.50
2017-10-26T21:43:57.667Z,9.73
2017-10-26T21:46:25.221Z,9.87
2017-10-26T21:48:53.563Z,11.83
2017-10-26T21:51:21.095Z,9.73
2017-10-26T21:53:48.681Z,9.30
2017-10-26T21:56:16.985Z,10.50
2017-10-26T21:58:44.541Z,11.48
2017-10-26T22:01:12.095Z,10.47
2017-10-26T22:03:39.647Z,10.97
2017-10-26T22:06:07.215Z,10.47
2017-10-26T22:08:34.777Z,9.93
2017-10-26T22:11:02.333Z,9.23
2017-10-26T22:13:29.888Z,9.63
2017-10-26T22:15:57.458Z,9.53
2017-10-26T22:18:24.987Z,9.70
2017-10-26T22:20:52.549Z,11.20
2017-10-26T22:23:20.124Z,9.80
2017-10-26T22:25:47.680Z,10.37
2017-10-26T22:28:15.238Z,9.60
2017-10-26T22:30:42.784Z,10.57
2017-10-26T22:33:10.357Z,10.83
2017-10-26T22:35:37.927Z,11.10
2017-10-26T22:38:05.469Z,8.97
2017-10-26T22:40:33.045Z,10.30
2017-10-26T22:43:00.599Z,8.47
2017-10-26T22:45:28.179Z,9.87
2017-10-26T22:47:55.736Z,10.33
2017-10-26T22:50:23.319Z,10.63
2017-10-26T22:52:50.846Z,9.50
2017-10-26T22:55:18.399Z,9.00
2017-10-26T22:57:45.983Z,8.40
2017-10-26T23:00:13.520Z,7.53
2017-10-26T23:02:41.100Z,8.93
2017-10-26T23:05:08.638Z,7.97
2017-10-26T23:07:36.983Z,8.70
2017-10-26T23:10:04.546Z,10.07
2017-10-26T23:12:32.105Z,9.87
2017-10-26T23:14:59.676Z,9.17
2017-10-26T23:17:27.223Z,7.87
2017-10-26T23:19:54.791Z,8.87
2017-10-26T23:22:22.334Z,10.40
2017-10-26T23:24:49.894Z,8.53
2017-10-26T23:27:17.427Z,8.30
2017-10-26T23:29:44.968Z,8.80
2017-10-26T23:32:13.304Z,9.10
2017-10-26T23:34:40.857Z,8.10
2017-10-26T23:37:08.428Z,8.57
2017-10-26T23:39:35.979Z,8.77
2017-10-26T23:42:03.552Z,8.67
2017-10-26T23:44:31.103Z,8.10
2017-10-26T23:46:58.641Z,7.87
2017-10-26T23:49:26.221Z,8.00
2017-10-26T23:51:53.772Z,9.47
2017-10-26T23:54:21.320Z,8.73
2017-10-26T23:56:48.852Z,8.33
2017-10-26T23:59:17.195Z,9.00
